Time;durP1;ratioP1;P1;durP2;ratioP2;P2;SDS_P1;SDS_P2;PMS_P1;PMS_P2;Temp;Humidity;BMP_temperature;BMP_pressure;BME280_temperature;BME280_humidity;BME280_pressure;Samples;Min_cycle;Max_cycle;Signal;HPM_P1;HPM_P2
2023/09/29 00:00:18;;;;;;;10.90;10.60;;;15.00;99.90;;;;;;5059623;28;20235;-88
2023/09/29 00:02:50;;;;;;;10.38;10.07;;;14.90;99.90;;;;;;5057793;28;20237;-88
2023/09/29 00:05:18;;;;;;;10.55;10.25;;;14.90;99.90;;;;;;5057329;28;20243;-88
2023/09/29 00:07:46;;;;;;;10.60;10.30;;;14.80;99.90;;;;;;5057461;28;20309;-87
2023/09/29 00:10:15;;;;;;;10.77;10.48;;;14.80;99.90;;;;;;5057713;28;20231;-88
2023/09/29 00:12:45;;;;;;;10.52;10.23;;;14.80;99.90;;;;;;5057493;28;20235;-87
2023/09/29 00:15:13;;;;;;;10.50;10.20;;;14.70;99.90;;;;;;5057450;28;20242;-87
2023/09/29 00:17:40;;;;;;;10.57;10.27;;;14.60;99.90;;;;;;5057748;28;20227;-87
2023/09/29 00:20:16;;;;;;;10.70;10.40;;;14.50;99.90;;;;;;5057325;28;20240;-87
2023/09/29 00:22:44;;;;;;;10.50;10.20;;;14.40;99.90;;;;;;5058070;28;20238;-87
2023/09/29 00:25:12;;;;;;;10.48;10.18;;;14.30;99.90;;;;;;5071045;28;20227;-87
2023/09/29 00:27:39;;;;;;;10.52;10.23;;;14.30;99.90;;;;;;5078858;28;20218;-87
2023/09/29 00:30:12;;;;;;;10.60;10.30;;;14.20;99.90;;;;;;5079228;28;20221;-87
2023/09/29 00:32:45;;;;;;;10.65;10.35;;;14.20;99.90;;;;;;5080179;28;20246;-88
2023/09/29 00:35:17;;;;;;;10.65;10.35;;;14.20;99.90;;;;;;5070393;28;20294;-88
2023/09/29 00:37:45;;;;;;;10.60;10.30;;;14.20;99.90;;;;;;5063230;28;20227;-87
2023/09/29 00:40:14;;;;;;;10.45;10.15;;;14.20;99.90;;;;;;5061176;28;20238;-87
2023/09/29 00:42:43;;;;;;;10.55;10.25;;;14.20;99.90;;;;;;5060719;28;20231;-87
2023/09/29 00:45:16;;;;;;;10.53;10.23;;;14.20;99.90;;;;;;5060488;28;20238;-88
2023/09/29 00:47:49;;;;;;;10.50;10.20;;;14.10;99.90;;;;;;5060828;28;20314;-87
2023/09/29 00:50:17;;;;;;;10.70;10.40;;;14.10;99.90;;;;;;5061230;28;20230;-88
2023/09/29 00:52:47;;;;;;;10.55;10.25;;;14.10;99.90;;;;;;5060457;28;20230;-88
2023/09/29 00:55:15;;;;;;;10.40;10.10;;;14.10;99.90;;;;;;5060517;28;20231;-87
2023/09/29 00:57:48;;;;;;;10.38;10.07;;;14.10;99.90;;;;;;5060418;28;20225;-87
2023/09/29 01:00:29;;;;;;;10.38;10.07;;;14.10;99.90;;;;;;5060633;28;20305;-87
2023/09/29 01:02:58;;;;;;;10.50;10.20;;;14.20;99.90;;;;;;5059534;28;20234;-87
2023/09/29 01:05:26;;;;;;;10.77;10.48;;;14.10;99.90;;;;;;5059668;28;20297;-87
2023/09/29 01:07:54;;;;;;;10.40;10.10;;;14.20;99.90;;;;;;5060351;28;20304;-87
2023/09/29 01:10:24;;;;;;;10.60;10.30;;;14.20;99.90;;;;;;5060480;28;20323;-87
2023/09/29 01:12:53;;;;;;;10.48;10.18;;;14.10;99.90;;;;;;5061078;28;20330;-87
2023/09/29 01:15:22;;;;;;;10.45;10.15;;;14.20;99.90;;;;;;5060300;28;20314;-87
2023/09/29 01:17:52;;;;;;;10.35;10.05;;;14.10;99.90;;;;;;5060797;28;20226;-87
2023/09/29 01:20:27;;;;;;;10.43;10.13;;;14.10;99.90;;;;;;5059709;28;20242;-87
2023/09/29 01:22:55;;;;;;;10.70;10.40;;;14.10;99.90;;;;;;5059625;28;20246;-87
2023/09/29 01:25:24;;;;;;;10.37;10.07;;;14.10;99.90;;;;;;5059518;28;20304;-87
2023/09/29 01:27:54;;;;;;;10.50;10.20;;;14.00;99.90;;;;;;5060008;28;20235;-87
2023/09/29 01:30:22;;;;;;;10.52;10.23;;;14.00;99.90;;;;;;5059520;28;20238;-88
2023/09/29 01:32:56;;;;;;;10.80;10.50;;;14.00;99.90;;;;;;5059618;28;20227;-87
2023/09/29 01:35:24;;;;;;;10.60;10.30;;;13.90;99.90;;;;;;5059826;28;20235;-87
2023/09/29 01:37:54;;;;;;;10.65;10.35;;;13.80;99.90;;;;;;5059377;28;20258;-87
2023/09/29 01:40:24;;;;;;;10.33;10.03;;;13.80;99.90;;;;;;5059469;28;20234;-87
2023/09/29 01:42:53;;;;;;;10.40;10.10;;;13.70;99.90;;;;;;5059315;28;20238;-87
2023/09/29 01:45:21;;;;;;;10.10;9.80;;;13.60;99.90;;;;;;5084952;22;20282;-82
2023/09/29 01:47:49;;;;;;;10.50;10.20;;;13.50;99.90;;;;;;5069343;28;20226;-83
2023/09/29 01:50:20;;;;;;;10.33;10.03;;;13.40;99.90;;;;;;5069458;28;20238;-83
2023/09/29 01:52:48;;;;;;;10.70;10.40;;;13.30;99.90;;;;;;5069262;28;20265;-83
2023/09/29 01:55:19;;;;;;;10.73;10.43;;;13.30;99.90;;;;;;5070050;28;20235;-83
2023/09/29 01:57:49;;;;;;;10.87;10.57;;;13.30;99.90;;;;;;5069339;28;20230;-83
2023/09/29 02:00:20;;;;;;;10.70;10.40;;;13.20;99.90;;;;;;5068788;28;20253;-83
2023/09/29 02:02:48;;;;;;;10.53;10.23;;;13.20;99.90;;;;;;5068855;28;20254;-83
2023/09/29 02:05:16;;;;;;;10.80;10.50;;;13.10;99.90;;;;;;5068984;28;20254;-83
2023/09/29 02:07:44;;;;;;;10.53;10.23;;;13.00;99.90;;;;;;5068860;28;20235;-83
2023/09/29 02:10:12;;;;;;;10.63;10.33;;;13.00;99.90;;;;;;5069242;28;20227;-83
2023/09/29 02:12:46;;;;;;;10.67;10.37;;;12.90;99.90;;;;;;5068935;28;20231;-83
2023/09/29 02:15:17;;;;;;;10.70;10.40;;;12.90;99.90;;;;;;5067830;28;20242;-82
2023/09/29 02:17:45;;;;;;;10.80;10.50;;;12.80;99.90;;;;;;5070398;28;20230;-83
2023/09/29 02:20:15;;;;;;;10.10;9.80;;;12.80;99.90;;;;;;5072582;28;20234;-82
2023/09/29 02:22:42;;;;;;;10.50;10.20;;;12.80;99.90;;;;;;5070532;28;20229;-82
2023/09/29 02:25:12;;;;;;;10.30;10.00;;;12.80;99.90;;;;;;5068709;28;20299;-83
2023/09/29 02:27:40;;;;;;;10.47;10.17;;;12.80;99.90;;;;;;5068575;28;20222;-82
2023/09/29 02:30:10;;;;;;;10.33;10.03;;;12.70;99.90;;;;;;5068486;28;20242;-83
2023/09/29 02:32:41;;;;;;;10.50;10.20;;;12.80;99.90;;;;;;5070806;28;20261;-83
2023/09/29 02:35:09;;;;;;;10.20;9.90;;;12.70;99.90;;;;;;5067621;28;20223;-82
2023/09/29 02:37:37;;;;;;;10.63;10.33;;;12.70;99.90;;;;;;5068229;28;20246;-83
2023/09/29 02:40:06;;;;;;;10.10;9.80;;;12.60;99.90;;;;;;5068414;28;20238;-83
2023/09/29 02:42:34;;;;;;;10.30;10.00;;;12.60;99.90;;;;;;5069499;28;20273;-83
2023/09/29 02:45:01;;;;;;;10.30;10.00;;;12.50;99.90;;;;;;5068065;28;20263;-83
2023/09/29 02:47:28;;;;;;;10.30;10.00;;;12.50;99.90;;;;;;5068636;28;20231;-83
2023/09/29 02:49:58;;;;;;;10.03;9.73;;;12.60;99.90;;;;;;5068138;28;20262;-83
2023/09/29 02:52:27;;;;;;;10.10;9.80;;;12.60;99.90;;;;;;5067858;28;20235;-83
2023/09/29 02:54:55;;;;;;;10.13;9.83;;;12.60;99.90;;;;;;5067519;28;20247;-83
2023/09/29 02:57:22;;;;;;;10.47;10.17;;;12.60;99.90;;;;;;5068217;28;20286;-82
2023/09/29 02:59:50;;;;;;;10.13;9.83;;;12.50;99.90;;;;;;5072066;28;20242;-82
2023/09/29 03:02:17;;;;;;;10.40;10.10;;;12.50;99.90;;;;;;5070544;28;20242;-82
2023/09/29 03:04:46;;;;;;;10.33;10.03;;;12.60;99.90;;;;;;5069018;28;20246;-83
2023/09/29 03:07:15;;;;;;;10.27;9.97;;;12.60;99.90;;;;;;5068643;28;20219;-82
2023/09/29 03:09:43;;;;;;;10.30;10.00;;;12.50;99.90;;;;;;5068858;28;20238;-84
2023/09/29 03:12:10;;;;;;;10.13;9.83;;;12.50;99.90;;;;;;5068497;28;20237;-82
2023/09/29 03:14:37;;;;;;;10.30;10.00;;;12.50;99.90;;;;;;5069109;28;20227;-83
2023/09/29 03:17:04;;;;;;;10.17;9.87;;;12.50;99.90;;;;;;5070188;28;20247;-82
2023/09/29 03:19:31;;;;;;;10.30;10.00;;;12.40;99.90;;;;;;5071537;28;20293;-83
2023/09/29 03:21:59;;;;;;;10.30;10.00;;;12.40;99.90;;;;;;5072209;28;20253;-82
2023/09/29 03:24:28;;;;;;;10.30;10.00;;;12.40;99.90;;;;;;5071563;28;20254;-82
2023/09/29 03:26:56;;;;;;;10.27;9.97;;;12.30;99.90;;;;;;5072024;28;20234;-84
2023/09/29 03:29:23;;;;;;;10.23;9.93;;;12.40;99.90;;;;;;5071900;28;20235;-83
2023/09/29 03:31:53;;;;;;;10.30;10.00;;;12.40;99.90;;;;;;5071999;28;20233;-83
2023/09/29 03:34:23;;;;;;;10.20;9.90;;;12.30;99.90;;;;;;5072125;28;20219;-82
2023/09/29 03:36:51;;;;;;;10.17;9.87;;;12.30;99.90;;;;;;5072032;28;20234;-82
2023/09/29 03:39:18;;;;;;;10.17;9.87;;;12.30;99.90;;;;;;5072410;28;20234;-82
2023/09/29 03:41:47;;;;;;;10.00;9.70;;;12.30;99.90;;;;;;5072514;28;20290;-82
2023/09/29 03:44:14;;;;;;;10.20;9.90;;;12.30;99.90;;;;;;5072060;28;20254;-82
2023/09/29 03:46:41;;;;;;;10.10;9.80;;;12.20;99.90;;;;;;5071521;28;20234;-82
2023/09/29 03:49:10;;;;;;;10.10;9.80;;;12.30;99.90;;;;;;5072533;28;20226;-82
2023/09/29 03:51:38;;;;;;;9.90;9.60;;;12.30;99.90;;;;;;5072529;28;20237;-82
2023/09/29 03:54:09;;;;;;;10.20;9.90;;;12.30;99.90;;;;;;5072443;28;20211;-83
2023/09/29 03:56:36;;;;;;;9.93;9.63;;;12.30;99.90;;;;;;5071665;28;20241;-82
2023/09/29 03:59:05;;;;;;;10.00;9.70;;;12.30;99.90;;;;;;5071981;28;20230;-82
2023/09/29 04:01:32;;;;;;;10.20;9.90;;;12.30;99.90;;;;;;5072100;28;20245;-82
2023/09/29 04:04:01;;;;;;;10.13;9.83;;;12.30;99.90;;;;;;5073765;28;20223;-82
2023/09/29 04:06:28;;;;;;;10.30;10.00;;;12.30;99.90;;;;;;5073146;28;20294;-82
2023/09/29 04:08:55;;;;;;;10.13;9.83;;;12.30;99.90;;;;;;5072864;28;20353;-84
2023/09/29 04:11:22;;;;;;;10.50;10.20;;;12.30;99.90;;;;;;5072981;28;20279;-83
2023/09/29 04:13:49;;;;;;;10.10;9.80;;;12.30;99.90;;;;;;5077407;28;20226;-83
2023/09/29 04:16:18;;;;;;;9.80;9.50;;;12.30;99.90;;;;;;5080277;28;20241;-83
2023/09/29 04:18:45;;;;;;;9.60;9.30;;;12.40;99.90;;;;;;5078925;28;20226;-83
2023/09/29 04:21:14;;;;;;;9.80;9.50;;;12.40;99.90;;;;;;5075294;28;20227;-84
2023/09/29 04:23:42;;;;;;;9.90;9.60;;;12.40;99.90;;;;;;5074611;28;20227;-83
2023/09/29 04:26:16;;;;;;;9.67;9.37;;;12.50;99.90;;;;;;5072618;28;20253;-84
2023/09/29 04:28:44;;;;;;;9.80;9.50;;;12.50;99.90;;;;;;5071802;28;20265;-83
2023/09/29 04:31:12;;;;;;;9.57;9.27;;;12.50;99.90;;;;;;5070440;28;20302;-84
2023/09/29 04:33:41;;;;;;;9.70;9.40;;;12.50;99.90;;;;;;5070020;28;20272;-84
2023/09/29 04:36:09;;;;;;;9.60;9.30;;;12.50;99.90;;;;;;5069276;28;20231;-85
2023/09/29 04:38:37;;;;;;;9.60;9.30;;;12.60;99.90;;;;;;5071166;28;20231;-84
2023/09/29 04:41:05;;;;;;;9.60;9.30;;;12.60;99.90;;;;;;5069798;28;20235;-84
2023/09/29 04:43:32;;;;;;;9.33;9.03;;;12.60;99.90;;;;;;5070541;28;20227;-83
2023/09/29 04:45:59;;;;;;;9.50;9.20;;;12.60;99.90;;;;;;5071050;28;20238;-84
2023/09/29 04:48:27;;;;;;;9.60;9.30;;;12.60;99.90;;;;;;5071688;28;20226;-84
2023/09/29 04:50:58;;;;;;;9.57;9.27;;;12.60;99.90;;;;;;5071482;28;20239;-83
2023/09/29 04:53:25;;;;;;;9.83;9.53;;;12.50;99.90;;;;;;5071381;28;20320;-83
2023/09/29 04:55:52;;;;;;;10.10;9.80;;;12.50;99.90;;;;;;5071111;28;20378;-84
2023/09/29 04:58:19;;;;;;;9.90;9.60;;;12.50;99.90;;;;;;5070594;28;20262;-83
2023/09/29 05:00:46;;;;;;;9.90;9.60;;;12.50;99.90;;;;;;5071042;28;20223;-83
2023/09/29 05:03:13;;;;;;;9.90;9.60;;;12.50;99.90;;;;;;5071493;28;20236;-84
2023/09/29 05:05:41;;;;;;;9.93;9.63;;;12.50;99.90;;;;;;5072373;28;20223;-83
2023/09/29 05:08:09;;;;;;;10.00;9.70;;;12.50;99.90;;;;;;5071476;28;20257;-84
2023/09/29 05:10:36;;;;;;;10.20;9.90;;;12.50;99.90;;;;;;5070021;28;20231;-84
2023/09/29 05:13:04;;;;;;;9.97;9.67;;;12.50;99.90;;;;;;5070559;28;20226;-83
2023/09/29 05:15:32;;;;;;;9.90;9.60;;;12.50;99.90;;;;;;5069473;28;20219;-84
2023/09/29 05:17:59;;;;;;;10.00;9.70;;;12.50;99.90;;;;;;5074466;28;20241;-83
2023/09/29 05:20:26;;;;;;;10.10;9.80;;;12.40;99.90;;;;;;5071894;28;20302;-84
2023/09/29 05:22:53;;;;;;;9.90;9.60;;;12.30;99.90;;;;;;5070653;28;20245;-84
2023/09/29 05:25:22;;;;;;;10.00;9.70;;;12.30;99.90;;;;;;5069823;28;20226;-84
2023/09/29 05:27:50;;;;;;;9.80;9.50;;;12.20;99.90;;;;;;5069796;28;20238;-84
2023/09/29 05:30:19;;;;;;;9.83;9.53;;;12.30;99.90;;;;;;5070155;28;20257;-83
2023/09/29 05:32:46;;;;;;;10.00;9.70;;;12.20;99.90;;;;;;5069503;28;20236;-84
2023/09/29 05:35:13;;;;;;;9.70;9.40;;;12.30;99.90;;;;;;5069519;28;20231;-84
2023/09/29 05:37:40;;;;;;;10.00;9.70;;;12.30;99.90;;;;;;5070006;28;20233;-84
2023/09/29 05:40:09;;;;;;;9.90;9.60;;;12.30;99.90;;;;;;5071459;28;20265;-83
2023/09/29 05:42:38;;;;;;;9.60;9.30;;;12.40;99.90;;;;;;5070968;28;20227;-83
2023/09/29 05:45:07;;;;;;;9.60;9.30;;;12.40;99.90;;;;;;5072669;28;20227;-83
2023/09/29 05:47:34;;;;;;;9.70;9.40;;;12.50;99.90;;;;;;5073614;28;20281;-83
2023/09/29 05:50:01;;;;;;;9.60;9.30;;;12.50;99.90;;;;;;5073861;28;20230;-83
2023/09/29 05:52:28;;;;;;;9.50;9.20;;;12.60;99.90;;;;;;5070556;28;20296;-84
2023/09/29 05:54:55;;;;;;;9.63;9.33;;;12.60;99.90;;;;;;5069302;28;20230;-83
2023/09/29 05:57:22;;;;;;;9.57;9.27;;;12.70;99.90;;;;;;5068279;28;20241;-84
2023/09/29 05:59:51;;;;;;;9.50;9.20;;;12.70;99.90;;;;;;5067450;28;20254;-83
2023/09/29 06:02:19;;;;;;;9.73;9.43;;;12.80;99.90;;;;;;5068272;28;20253;-83
2023/09/29 06:04:46;;;;;;;9.60;9.30;;;12.80;99.90;;;;;;5068722;28;20241;-84
2023/09/29 06:07:13;;;;;;;9.70;9.40;;;12.90;99.90;;;;;;5067773;28;20239;-84
2023/09/29 06:09:41;;;;;;;9.83;9.53;;;12.90;99.90;;;;;;5068337;28;20231;-83
2023/09/29 06:12:08;;;;;;;9.40;9.10;;;13.00;99.90;;;;;;5067602;28;20235;-83
2023/09/29 06:14:35;;;;;;;9.40;9.10;;;13.10;99.90;;;;;;5068155;28;20219;-83
2023/09/29 06:17:04;;;;;;;9.20;8.90;;;13.20;99.90;;;;;;5067800;28;20231;-84
2023/09/29 06:19:31;;;;;;;9.33;9.03;;;13.30;99.90;;;;;;5068728;28;20257;-83
2023/09/29 06:21:59;;;;;;;9.43;9.13;;;13.40;99.90;;;;;;5067752;28;20239;-83
2023/09/29 06:24:26;;;;;;;9.30;9.00;;;13.50;99.90;;;;;;5067487;28;20242;-83
2023/09/29 06:26:53;;;;;;;9.40;9.10;;;13.60;99.90;;;;;;5067719;28;20253;-84
2023/09/29 06:29:20;;;;;;;9.30;9.00;;;13.70;99.90;;;;;;5068356;28;20235;-84
2023/09/29 06:31:47;;;;;;;9.40;9.10;;;13.80;99.90;;;;;;5067219;28;20273;-84
2023/09/29 06:34:16;;;;;;;9.30;9.00;;;13.90;99.90;;;;;;5068875;28;20234;-83
2023/09/29 06:36:44;;;;;;;9.43;9.13;;;14.00;99.90;;;;;;5068548;28;20245;-83
2023/09/29 06:39:12;;;;;;;9.50;9.20;;;14.10;99.90;;;;;;5068808;28;20293;-83
2023/09/29 06:41:39;;;;;;;9.60;9.30;;;14.10;99.90;;;;;;5068486;28;20223;-84
2023/09/29 06:44:07;;;;;;;9.77;9.48;;;14.20;99.90;;;;;;5068195;28;20290;-83
2023/09/29 06:46:35;;;;;;;9.90;9.60;;;14.20;99.90;;;;;;5069013;28;20298;-84
2023/09/29 06:49:02;;;;;;;10.07;9.77;;;14.30;99.90;;;;;;5068415;28;20235;-84
2023/09/29 06:51:31;;;;;;;9.80;9.50;;;14.40;99.90;;;;;;5069908;28;20237;-84
2023/09/29 06:53:58;;;;;;;9.88;9.57;;;14.50;99.90;;;;;;5069364;28;20223;-84
2023/09/29 06:56:27;;;;;;;10.13;9.82;;;14.60;99.90;;;;;;5068582;28;20269;-81
2023/09/29 06:58:54;;;;;;;10.30;10.00;;;14.60;99.90;;;;;;5066821;28;21020;-82
2023/09/29 07:01:22;;;;;;;10.30;10.00;;;14.70;99.90;;;;;;5067125;28;20227;-82
2023/09/29 07:03:49;;;;;;;10.25;9.95;;;14.70;99.90;;;;;;5066320;28;20254;-82
2023/09/29 07:06:21;;;;;;;10.57;10.27;;;14.80;99.90;;;;;;5065893;28;20239;-82
2023/09/29 07:08:49;;;;;;;10.50;10.20;;;15.00;99.90;;;;;;5067087;28;20321;-83
2023/09/29 07:11:22;;;;;;;10.50;10.20;;;15.10;99.90;;;;;;5067952;28;20223;-82
2023/09/29 07:13:50;;;;;;;10.60;10.30;;;15.20;99.90;;;;;;5067424;28;20258;-82
2023/09/29 07:16:19;;;;;;;10.50;10.20;;;15.40;99.90;;;;;;5067688;28;20270;-83
2023/09/29 07:18:47;;;;;;;10.65;10.35;;;15.60;99.90;;;;;;5068018;28;20242;-82
2023/09/29 07:21:15;;;;;;;10.50;10.20;;;15.80;99.90;;;;;;5066522;28;20286;-82
2023/09/29 07:23:42;;;;;;;10.50;10.20;;;15.90;99.90;;;;;;5066951;28;20292;-82
2023/09/29 07:26:10;;;;;;;10.35;10.05;;;16.00;99.90;;;;;;5066350;28;20243;-82
2023/09/29 07:28:38;;;;;;;10.70;10.40;;;16.10;99.90;;;;;;5066783;28;20242;-82
2023/09/29 07:31:05;;;;;;;10.63;10.32;;;16.30;99.90;;;;;;5065767;28;20231;-81
2023/09/29 07:33:32;;;;;;;10.65;10.35;;;16.40;99.90;;;;;;5067183;28;20234;-81
2023/09/29 07:35:59;;;;;;;10.85;10.55;;;16.60;99.90;;;;;;5069816;28;20238;-83
2023/09/29 07:38:26;;;;;;;10.80;10.50;;;16.80;99.90;;;;;;5072980;28;20230;-84
2023/09/29 07:40:53;;;;;;;10.57;10.27;;;16.90;99.90;;;;;;5069798;28;20231;-84
2023/09/29 07:43:22;;;;;;;10.60;10.30;;;17.00;99.90;;;;;;5069256;28;20218;-82
2023/09/29 07:45:49;;;;;;;10.75;10.45;;;17.10;99.90;;;;;;5064252;28;20243;-81
2023/09/29 07:48:17;;;;;;;10.68;10.38;;;17.10;99.90;;;;;;5059949;28;20281;-82
2023/09/29 07:50:44;;;;;;;10.75;10.45;;;17.10;99.90;;;;;;5061505;28;20241;-81
2023/09/29 07:53:11;;;;;;;10.60;10.30;;;17.10;99.90;;;;;;5060337;28;20231;-81
2023/09/29 07:55:39;;;;;;;10.40;10.10;;;17.30;99.90;;;;;;5058639;28;20239;-82
2023/09/29 07:58:06;;;;;;;10.60;10.30;;;17.40;99.90;;;;;;5058506;28;20230;-81
2023/09/29 08:00:34;;;;;;;10.73;10.43;;;17.50;99.90;;;;;;5058025;28;20305;-82
2023/09/29 08:03:01;;;;;;;10.52;10.23;;;17.60;99.90;;;;;;5058489;28;20258;-82
2023/09/29 08:05:29;;;;;;;10.43;10.13;;;17.70;99.90;;;;;;5058495;28;20288;-82
2023/09/29 08:07:56;;;;;;;10.95;10.65;;;17.90;99.90;;;;;;5058011;28;20301;-81
2023/09/29 08:10:23;;;;;;;10.82;10.52;;;18.00;99.90;;;;;;5061432;28;20235;-82
2023/09/29 08:12:52;;;;;;;10.60;10.30;;;18.10;99.90;;;;;;5059835;28;20250;-82
2023/09/29 08:15:21;;;;;;;10.68;10.38;;;18.20;99.90;;;;;;5059269;28;20239;-82
2023/09/29 08:17:50;;;;;;;10.80;10.50;;;18.40;99.90;;;;;;5058272;28;20227;-81
2023/09/29 08:20:18;;;;;;;10.93;10.63;;;18.60;99.90;;;;;;5057489;28;20313;-82
2023/09/29 08:22:45;;;;;;;11.00;10.70;;;18.90;99.90;;;;;;5059969;28;20242;-82
2023/09/29 08:25:13;;;;;;;10.75;10.45;;;19.20;99.90;;;;;;5060343;28;20277;-82
2023/09/29 08:27:40;;;;;;;10.80;10.50;;;19.40;99.90;;;;;;5059334;28;20318;-82
2023/09/29 08:30:08;;;;;;;11.00;10.70;;;19.60;99.90;;;;;;5059348;28;20637;-83
2023/09/29 08:32:37;;;;;;;11.50;11.10;;;19.70;99.90;;;;;;5058286;28;20290;-82
2023/09/29 08:35:06;;;;;;;11.00;10.70;;;19.90;99.90;;;;;;5058202;28;20245;-82
2023/09/29 08:37:33;;;;;;;10.90;10.60;;;20.10;99.90;;;;;;5058826;28;20235;-82
2023/09/29 08:40:01;;;;;;;11.02;10.73;;;20.30;99.90;;;;;;5058422;28;20261;-81
2023/09/29 08:42:36;;;;;;;11.20;10.90;;;20.70;99.90;;;;;;5058578;28;20294;-82
2023/09/29 08:45:11;;;;;;;11.07;10.77;;;21.00;99.90;;;;;;5058918;28;20257;-82
2023/09/29 08:47:40;;;;;;;11.35;11.02;;;21.30;99.90;;;;;;5063141;28;20293;-82
2023/09/29 08:50:10;;;;;;;11.10;10.80;;;21.50;99.90;;;;;;5063426;28;20219;-82
2023/09/29 08:52:44;;;;;;;11.10;10.80;;;21.50;99.90;;;;;;5063797;28;20282;-82
2023/09/29 08:55:12;;;;;;;11.10;10.80;;;21.50;99.90;;;;;;5064136;28;20242;-82
2023/09/29 08:57:41;;;;;;;11.23;10.93;;;21.50;99.90;;;;;;5063237;28;20345;-82
2023/09/29 09:00:12;;;;;;;10.98;10.68;;;21.40;99.90;;;;;;5063010;28;20329;-82
2023/09/29 09:02:41;;;;;;;11.25;10.95;;;21.50;99.90;;;;;;5062712;28;20227;-82
2023/09/29 09:05:11;;;;;;;11.18;10.88;;;21.50;99.90;;;;;;5062027;28;20237;-82
2023/09/29 09:07:40;;;;;;;11.20;10.90;;;21.50;99.90;;;;;;5061844;28;20245;-82
2023/09/29 09:10:09;;;;;;;11.02;10.73;;;21.60;99.90;;;;;;5061748;28;20231;-82
2023/09/29 09:12:39;;;;;;;11.07;10.77;;;21.60;99.90;;;;;;5062018;28;20242;-81
2023/09/29 09:15:09;;;;;;;11.20;10.90;;;21.60;99.90;;;;;;5062304;28;20304;-82
2023/09/29 09:17:37;;;;;;;11.05;10.75;;;21.70;99.90;;;;;;5061036;28;20320;-82
2023/09/29 09:20:06;;;;;;;11.13;10.82;;;21.80;99.90;;;;;;5061174;28;20241;-82
2023/09/29 09:22:38;;;;;;;11.10;10.80;;;22.00;99.90;;;;;;5062934;28;20223;-82
2023/09/29 09:25:08;;;;;;;11.00;10.70;;;22.20;99.90;;;;;;5061188;28;20243;-82
2023/09/29 09:27:39;;;;;;;10.98;10.68;;;22.30;99.90;;;;;;5061197;28;20234;-82
2023/09/29 09:30:19;;;;;;;10.90;10.60;;;22.30;99.90;;;;;;5061152;28;20224;-82
2023/09/29 09:32:46;;;;;;;10.63;10.32;;;22.40;99.90;;;;;;5060810;28;20284;-82
2023/09/29 09:35:25;;;;;;;10.70;10.40;;;22.50;99.90;;;;;;5060344;28;20241;-82
2023/09/29 09:37:54;;;;;;;10.68;10.38;;;22.50;99.90;;;;;;5060441;28;20240;-82
2023/09/29 09:40:25;;;;;;;10.43;10.13;;;22.50;99.90;;;;;;5060638;28;20235;-82
2023/09/29 09:42:54;;;;;;;10.57;10.27;;;22.40;99.90;;;;;;5060042;28;20226;-82
2023/09/29 09:45:25;;;;;;;10.50;10.20;;;22.40;99.90;;;;;;5060768;28;20245;-82
2023/09/29 09:48:01;;;;;;;10.57;10.27;;;22.40;99.90;;;;;;5060388;28;20261;-82
2023/09/29 09:50:30;;;;;;;9.85;9.55;;;22.50;99.90;;;;;;5060806;28;20222;-82
2023/09/29 09:53:03;;;;;;;9.90;9.60;;;22.60;99.90;;;;;;5060421;28;20229;-82
2023/09/29 09:55:39;;;;;;;9.93;9.63;;;22.80;99.90;;;;;;5061340;28;20242;-82
2023/09/29 09:58:12;;;;;;;9.95;9.65;;;22.80;99.90;;;;;;5060652;28;20233;-82
2023/09/29 10:00:42;;;;;;;10.05;9.75;;;23.00;99.90;;;;;;5060911;28;20313;-82
2023/09/29 10:03:12;;;;;;;10.07;9.77;;;23.10;99.90;;;;;;5060774;28;20301;-82
2023/09/29 10:05:41;;;;;;;10.43;10.13;;;23.30;99.90;;;;;;5060027;28;20234;-82
2023/09/29 10:08:12;;;;;;;10.30;10.00;;;23.50;99.90;;;;;;5067803;28;20234;-82
2023/09/29 10:10:41;;;;;;;10.40;10.10;;;23.60;99.90;;;;;;5061812;28;20285;-82
2023/09/29 10:13:12;;;;;;;10.50;10.20;;;23.80;99.90;;;;;;5060703;28;20227;-82
2023/09/29 10:15:40;;;;;;;10.40;10.10;;;24.00;99.90;;;;;;5060519;28;20265;-82
2023/09/29 10:18:18;;;;;;;10.38;10.07;;;24.10;99.90;;;;;;5061258;28;20231;-82
2023/09/29 10:20:50;;;;;;;10.50;10.20;;;24.20;99.90;;;;;;5060460;28;20237;-82
2023/09/29 10:23:19;;;;;;;10.35;10.05;;;24.10;99.90;;;;;;5060203;28;20241;-82
2023/09/29 10:25:59;;;;;;;10.40;10.10;;;24.20;99.90;;;;;;5060532;28;20245;-82
2023/09/29 10:28:33;;;;;;;10.57;10.27;;;24.30;99.90;;;;;;5060694;28;20237;-82
2023/09/29 10:31:08;;;;;;;10.65;10.35;;;24.40;99.90;;;;;;5060565;28;20254;-82
2023/09/29 10:33:52;;;;;;;10.80;10.50;;;24.50;99.90;;;;;;5060353;28;20214;-82
2023/09/29 10:36:20;;;;;;;10.88;10.57;;;24.70;99.90;;;;;;5060197;28;20246;-82
2023/09/29 10:38:49;;;;;;;10.75;10.45;;;24.80;99.90;;;;;;5059969;28;20264;-82
2023/09/29 10:41:18;;;;;;;10.52;10.23;;;24.80;99.90;;;;;;5060361;28;20362;-82
2023/09/29 10:43:48;;;;;;;10.77;10.48;;;24.80;99.90;;;;;;5060174;28;20269;-82
2023/09/29 10:46:16;;;;;;;10.55;10.25;;;24.80;99.90;;;;;;5060713;28;20246;-81
2023/09/29 10:48:47;;;;;;;10.68;10.38;;;24.70;99.90;;;;;;5059883;28;20235;-82
2023/09/29 10:51:23;;;;;;;10.48;10.18;;;24.70;99.90;;;;;;5059752;28;20231;-81
2023/09/29 10:53:52;;;;;;;10.90;10.60;;;24.80;99.90;;;;;;5059921;28;20269;-82
2023/09/29 10:56:21;;;;;;;10.73;10.43;;;24.90;99.90;;;;;;5059727;28;20249;-81
2023/09/29 10:58:52;;;;;;;10.80;10.50;;;25.00;99.90;;;;;;5059685;28;20239;-82
2023/09/29 11:01:27;;;;;;;10.80;10.50;;;25.00;99.90;;;;;;5060124;28;20241;-82
2023/09/29 11:03:54;;;;;;;10.90;10.60;;;25.00;99.90;;;;;;5059178;28;20227;-82
2023/09/29 11:06:22;;;;;;;10.75;10.45;;;25.10;99.90;;;;;;5059924;28;20298;-82
2023/09/29 11:08:55;;;;;;;10.50;10.20;;;25.10;99.90;;;;;;5061200;28;20238;-82
2023/09/29 11:11:22;;;;;;;10.70;10.40;;;25.10;99.90;;;;;;5059425;28;20231;-82
2023/09/29 11:13:56;;;;;;;10.80;10.50;;;25.20;99.90;;;;;;5059589;28;20237;-82
2023/09/29 11:16:27;;;;;;;10.60;10.30;;;25.30;99.90;;;;;;5058695;28;20245;-82
2023/09/29 11:18:56;;;;;;;10.70;10.40;;;25.40;99.90;;;;;;5066058;28;20244;-81
2023/09/29 11:21:34;;;;;;;10.85;10.55;;;25.60;99.90;;;;;;5064132;28;20239;-82
2023/09/29 11:24:08;;;;;;;10.80;10.50;;;25.80;99.90;;;;;;5063598;28;20242;-82
2023/09/29 11:26:38;;;;;;;10.65;10.35;;;25.90;99.90;;;;;;5061878;28;20239;-81
2023/09/29 11:29:06;;;;;;;10.32;10.02;;;25.80;99.90;;;;;;5060607;28;20334;-82
2023/09/29 11:31:33;;;;;;;10.70;10.40;;;25.70;99.90;;;;;;5059445;28;20258;-82
2023/09/29 11:34:00;;;;;;;10.35;10.05;;;25.60;99.90;;;;;;5059727;28;20231;-82
2023/09/29 11:36:29;;;;;;;10.20;9.90;;;25.50;99.90;;;;;;5059277;28;20254;-82
2023/09/29 11:38:57;;;;;;;10.23;9.93;;;25.50;99.90;;;;;;5059096;28;20234;-82
2023/09/29 11:41:25;;;;;;;10.45;10.15;;;25.50;99.90;;;;;;5059344;28;20235;-81
2023/09/29 11:43:52;;;;;;;10.50;10.20;;;25.40;99.90;;;;;;5059025;28;20261;-81
2023/09/29 11:46:20;;;;;;;10.45;10.15;;;25.50;99.90;;;;;;5058642;28;20301;-83
2023/09/29 11:48:47;;;;;;;10.70;10.40;;;25.50;99.90;;;;;;5059274;28;20243;-82
2023/09/29 11:51:14;;;;;;;10.70;10.40;;;25.60;99.90;;;;;;5058927;28;20246;-82
2023/09/29 11:53:42;;;;;;;10.60;10.30;;;25.60;99.90;;;;;;5058957;28;20330;-82
2023/09/29 11:56:09;;;;;;;10.40;10.10;;;25.70;99.90;;;;;;5059280;28;20241;-82
2023/09/29 11:58:39;;;;;;;10.30;10.00;;;25.80;99.90;;;;;;5059330;28;20265;-83
2023/09/29 12:01:08;;;;;;;10.23;9.93;;;25.90;99.90;;;;;;5059345;28;20234;-82
2023/09/29 12:03:35;;;;;;;10.23;9.93;;;26.00;99.90;;;;;;5061810;28;20227;-82
2023/09/29 12:06:03;;;;;;;10.57;10.27;;;26.40;99.90;;;;;;5059622;28;20234;-82
2023/09/29 12:08:30;;;;;;;10.57;10.27;;;26.90;99.90;;;;;;5060214;28;20303;-82
2023/09/29 12:10:59;;;;;;;10.68;10.38;;;27.70;99.90;;;;;;5060110;28;20238;-83
2023/09/29 12:13:29;;;;;;;10.68;10.38;;;28.30;99.90;;;;;;5061116;28;20219;-82
2023/09/29 12:15:58;;;;;;;10.68;10.38;;;28.70;99.90;;;;;;5060032;28;20243;-83
2023/09/29 12:18:26;;;;;;;10.85;10.55;;;29.00;99.90;;;;;;5059748;28;20234;-82
2023/09/29 12:20:55;;;;;;;10.80;10.50;;;29.40;99.90;;;;;;5060061;28;20226;-83
2023/09/29 12:23:22;;;;;;;10.63;10.32;;;29.50;99.90;;;;;;5059192;28;20238;-83
2023/09/29 12:25:50;;;;;;;10.70;10.40;;;29.40;99.90;;;;;;5059832;28;20266;-82
2023/09/29 12:28:17;;;;;;;10.82;10.52;;;29.60;99.90;;;;;;5062047;28;20239;-82
2023/09/29 12:30:44;;;;;;;10.90;10.60;;;29.70;99.90;;;;;;5064673;28;20270;-83
2023/09/29 12:33:13;;;;;;;11.15;10.85;;;29.90;99.90;;;;;;5063326;28;20226;-83
2023/09/29 12:35:40;;;;;;;10.88;10.57;;;30.20;99.90;;;;;;5063000;28;20281;-83
2023/09/29 12:38:07;;;;;;;10.80;10.50;;;30.20;99.90;;;;;;5069862;28;20227;-83
2023/09/29 12:40:34;;;;;;;10.55;10.25;;;30.40;99.90;;;;;;5066275;28;20231;-82